Time;durP1;ratioP1;P1;durP2;ratioP2;P2;SDS_P1;SDS_P2;PMS_P1;PMS_P2;Temp;Humidity;BMP_temperature;BMP_pressure;BME280_temperature;BME280_humidity;BME280_pressure;Samples;Min_cycle;Max_cycle;Signal;HPM_P1;HPM_P2
2021/09/29 00:00:31;;;;;;;;;;;23.10;51.10;;;;;;1564505;75;703;-69
2021/09/29 00:02:34;;;;;;;;;;;23.20;51.10;;;;;;1555057;75;671;-70
2021/09/29 00:04:35;;;;;;;;;;;23.20;51.00;;;;;;1558175;74;1942;-69
2021/09/29 00:06:37;;;;;;;;;;;23.20;51.00;;;;;;1553572;75;704;-70
2021/09/29 00:08:39;;;;;;;;;;;23.10;51.00;;;;;;1549579;75;674;-70
2021/09/29 00:10:41;;;;;;;;;;;23.20;51.00;;;;;;1555146;76;700;-69
2021/09/29 00:12:43;;;;;;;;;;;23.10;51.00;;;;;;1561602;75;723;-69
2021/09/29 00:14:45;;;;;;;;;;;23.20;51.00;;;;;;1564749;74;1092;-68
2021/09/29 00:16:47;;;;;;;;;;;23.20;51.00;;;;;;1553973;76;739;-68
2021/09/29 00:18:50;;;;;;;;;;;23.10;51.00;;;;;;1550114;76;703;-68
2021/09/29 00:20:52;;;;;;;;;;;23.10;51.00;;;;;;1555597;75;762;-71
2021/09/29 00:22:54;;;;;;;;;;;23.20;51.00;;;;;;1558420;76;718;-72
2021/09/29 00:24:56;;;;;;;;;;;23.20;51.00;;;;;;1555985;75;1950;-68
2021/09/29 00:26:58;;;;;;;;;;;23.20;51.00;;;;;;1545883;76;687;-70
2021/09/29 00:29:00;;;;;;;;;;;23.20;51.00;;;;;;1552368;75;716;-70
2021/09/29 00:31:02;;;;;;;;;;;23.20;51.00;;;;;;1555913;75;711;-70
2021/09/29 00:33:05;;;;;;;;;;;23.20;51.00;;;;;;1560606;75;1167;-69
2021/09/29 00:35:07;;;;;;;;;;;23.20;51.00;;;;;;1540735;75;711;-68
2021/09/29 00:37:09;;;;;;;;;;;23.20;51.00;;;;;;1570941;75;760;-69
2021/09/29 00:39:11;;;;;;;;;;;23.20;51.00;;;;;;1553637;75;749;-69
2021/09/29 00:41:13;;;;;;;;;;;23.20;51.00;;;;;;1544410;76;754;-66
2021/09/29 00:43:15;;;;;;;;;;;23.10;51.10;;;;;;1548475;75;1114;-67
2021/09/29 00:45:17;;;;;;;;;;;23.20;51.00;;;;;;1556569;76;1940;-68
2021/09/29 00:47:19;;;;;;;;;;;23.20;51.00;;;;;;1565094;75;722;-69
2021/09/29 00:49:21;;;;;;;;;;;23.10;51.10;;;;;;1557618;75;779;-69
2021/09/29 00:51:23;;;;;;;;;;;23.20;51.10;;;;;;1557728;76;696;-68
2021/09/29 00:53:25;;;;;;;;;;;23.20;51.00;;;;;;1561753;72;2091;-63
2021/09/29 00:55:27;;;;;;;;;;;23.20;51.10;;;;;;1570235;75;794;-65
2021/09/29 00:57:29;;;;;;;;;;;23.20;51.00;;;;;;1545791;77;773;-65
2021/09/29 00:59:31;;;;;;;;;;;23.20;51.00;;;;;;1521040;76;670;-66
2021/09/29 01:01:33;;;;;;;;;;;23.20;51.00;;;;;;1538668;76;708;-65
2021/09/29 01:03:34;;;;;;;;;;;23.20;51.00;;;;;;1537872;76;1233;-65
2021/09/29 01:05:37;;;;;;;;;;;23.20;51.00;;;;;;1525400;77;1941;-65
2021/09/29 01:07:40;;;;;;;;;;;23.20;51.10;;;;;;1515337;77;793;-66
2021/09/29 01:10:02;;;;;;;;;;;23.20;51.00;;;;;;1508373;77;2430;-64
2021/09/29 01:12:22;;;;;;;;;;;23.20;51.00;;;;;;1490303;78;754;-65
2021/09/29 01:14:26;;;;;;;;;;;23.20;51.00;;;;;;1520049;77;1138;-64
2021/09/29 01:16:28;;;;;;;;;;;23.10;51.00;;;;;;1556171;75;765;-65
2021/09/29 01:18:30;;;;;;;;;;;23.10;51.00;;;;;;1550975;77;877;-65
2021/09/29 01:20:36;;;;;;;;;;;23.20;51.00;;;;;;1544116;75;742;-65
2021/09/29 01:22:42;;;;;;;;;;;23.20;51.00;;;;;;1542860;75;757;-65
2021/09/29 01:24:44;;;;;;;;;;;23.10;51.00;;;;;;1550798;77;1951;-65
2021/09/29 01:26:46;;;;;;;;;;;23.20;51.00;;;;;;1550942;75;668;-65
2021/09/29 01:28:53;;;;;;;;;;;23.10;50.90;;;;;;1550921;75;744;-65
2021/09/29 01:30:54;;;;;;;;;;;23.10;51.00;;;;;;1541291;77;1825;-63
2021/09/29 01:32:56;;;;;;;;;;;23.20;50.90;;;;;;1546827;75;689;-65
2021/09/29 01:34:58;;;;;;;;;;;23.10;50.90;;;;;;1549653;75;1122;-65
2021/09/29 01:37:04;;;;;;;;;;;23.20;51.00;;;;;;1541369;75;806;-65
2021/09/29 01:39:07;;;;;;;;;;;23.10;50.90;;;;;;1542649;75;1688;-65
2021/09/29 01:41:07;;;;;;;;;;;23.10;51.00;;;;;;1550684;75;1695;-66
2021/09/29 01:43:09;;;;;;;;;;;23.10;51.00;;;;;;1560319;75;697;-66
2021/09/29 01:45:11;;;;;;;;;;;23.10;51.00;;;;;;1551879;75;1964;-65
2021/09/29 01:47:13;;;;;;;;;;;23.10;51.00;;;;;;1550669;77;751;-64
2021/09/29 01:49:33;;;;;;;;;;;23.10;51.00;;;;;;1550501;77;766;-62
2021/09/29 01:51:37;;;;;;;;;;;23.10;51.00;;;;;;1542630;75;749;-63
2021/09/29 01:53:39;;;;;;;;;;;23.20;51.10;;;;;;1554488;75;1329;-64
2021/09/29 01:55:41;;;;;;;;;;;23.10;51.10;;;;;;1555447;75;693;-64
2021/09/29 01:57:43;;;;;;;;;;;23.20;51.10;;;;;;1547656;75;747;-65
2021/09/29 01:59:45;;;;;;;;;;;23.10;51.10;;;;;;1543659;75;765;-64
2021/09/29 02:01:47;;;;;;;;;;;23.10;51.10;;;;;;1542145;75;687;-64
2021/09/29 02:03:48;;;;;;;;;;;23.20;51.10;;;;;;1552646;75;1146;-65
2021/09/29 02:05:50;;;;;;;;;;;23.20;51.10;;;;;;1553197;75;1940;-63
2021/09/29 02:07:52;;;;;;;;;;;23.20;51.10;;;;;;1547525;75;800;-65
2021/09/29 02:09:54;;;;;;;;;;;23.20;51.00;;;;;;1543180;75;724;-65
2021/09/29 02:11:56;;;;;;;;;;;23.10;51.00;;;;;;1543732;75;697;-61
2021/09/29 02:13:58;;;;;;;;;;;23.20;51.10;;;;;;1539609;75;1150;-64
2021/09/29 02:16:00;;;;;;;;;;;23.20;51.10;;;;;;1543343;75;773;-64
2021/09/29 02:18:02;;;;;;;;;;;23.20;51.10;;;;;;1543527;75;836;-65
2021/09/29 02:20:04;;;;;;;;;;;23.20;51.20;;;;;;1545196;75;668;-64
2021/09/29 02:22:06;;;;;;;;;;;23.10;51.20;;;;;;1557109;75;672;-65
2021/09/29 02:24:08;;;;;;;;;;;23.10;51.10;;;;;;1545600;75;1142;-65
2021/09/29 02:26:10;;;;;;;;;;;23.10;51.10;;;;;;1543497;75;1944;-66
2021/09/29 02:28:12;;;;;;;;;;;23.10;51.10;;;;;;1543457;75;735;-64
2021/09/29 02:30:14;;;;;;;;;;;23.10;51.10;;;;;;1542200;77;831;-68
2021/09/29 02:32:16;;;;;;;;;;;23.10;51.10;;;;;;1551290;75;720;-67
2021/09/29 02:34:17;;;;;;;;;;;23.10;51.00;;;;;;1543466;75;1150;-68
2021/09/29 02:36:19;;;;;;;;;;;23.10;51.10;;;;;;1541245;75;788;-68
2021/09/29 02:38:21;;;;;;;;;;;23.20;51.10;;;;;;1517875;77;775;-68
2021/09/29 02:40:23;;;;;;;;;;;23.10;51.10;;;;;;1512315;77;749;-68
2021/09/29 02:42:25;;;;;;;;;;;23.10;51.20;;;;;;1511262;77;750;-68
2021/09/29 02:44:27;;;;;;;;;;;23.20;51.20;;;;;;1510950;77;1120;-69
2021/09/29 02:46:29;;;;;;;;;;;23.10;51.30;;;;;;1511567;77;1931;-69
2021/09/29 02:48:31;;;;;;;;;;;23.10;51.20;;;;;;1516059;77;787;-68
2021/09/29 02:50:33;;;;;;;;;;;23.10;51.30;;;;;;1518196;77;720;-68
2021/09/29 02:52:35;;;;;;;;;;;23.10;51.30;;;;;;1536972;77;764;-68
2021/09/29 02:54:37;;;;;;;;;;;23.10;51.40;;;;;;1536770;75;1194;-68
2021/09/29 02:56:39;;;;;;;;;;;23.10;51.30;;;;;;1543763;76;704;-69
2021/09/29 02:58:40;;;;;;;;;;;23.10;51.30;;;;;;1550586;75;786;-66
2021/09/29 03:00:42;;;;;;;;;;;23.10;51.30;;;;;;1544400;75;752;-68
2021/09/29 03:02:44;;;;;;;;;;;23.10;51.30;;;;;;1540541;76;785;-69
2021/09/29 03:04:46;;;;;;;;;;;23.10;51.40;;;;;;1559661;75;1948;-68
2021/09/29 03:06:48;;;;;;;;;;;23.10;51.40;;;;;;1552625;75;821;-69
2021/09/29 03:08:50;;;;;;;;;;;23.10;51.40;;;;;;1565546;75;757;-69
2021/09/29 03:10:52;;;;;;;;;;;23.10;51.40;;;;;;1534538;75;776;-69
2021/09/29 03:12:54;;;;;;;;;;;23.10;51.40;;;;;;1535772;76;742;-69
2021/09/29 03:14:55;;;;;;;;;;;23.10;51.40;;;;;;1545774;75;1136;-68
2021/09/29 03:16:57;;;;;;;;;;;23.10;51.50;;;;;;1546576;75;827;-64
2021/09/29 03:19:00;;;;;;;;;;;23.10;51.50;;;;;;1553082;75;673;-69
2021/09/29 03:21:02;;;;;;;;;;;23.00;51.40;;;;;;1533189;77;824;-68
2021/09/29 03:23:04;;;;;;;;;;;23.10;51.60;;;;;;1541365;75;698;-68
2021/09/29 03:25:06;;;;;;;;;;;23.00;51.50;;;;;;1543402;75;1951;-68
2021/09/29 03:27:08;;;;;;;;;;;23.10;51.60;;;;;;1543682;75;737;-69
2021/09/29 03:29:10;;;;;;;;;;;23.10;51.60;;;;;;1539372;75;719;-68
2021/09/29 03:31:13;;;;;;;;;;;23.10;51.60;;;;;;1554144;75;728;-68
2021/09/29 03:33:15;;;;;;;;;;;23.00;51.50;;;;;;1559487;75;844;-68
2021/09/29 03:35:16;;;;;;;;;;;23.00;51.50;;;;;;1542925;77;652;-68
2021/09/29 03:37:18;;;;;;;;;;;23.10;51.60;;;;;;1544380;75;736;-69
2021/09/29 03:39:20;;;;;;;;;;;23.00;51.60;;;;;;1559829;75;797;-68
2021/09/29 03:41:22;;;;;;;;;;;23.10;51.70;;;;;;1540099;75;687;-69
2021/09/29 03:43:24;;;;;;;;;;;23.10;51.70;;;;;;1546192;75;1156;-68
2021/09/29 03:45:26;;;;;;;;;;;23.10;51.80;;;;;;1556871;75;1947;-67
2021/09/29 03:47:28;;;;;;;;;;;23.10;51.80;;;;;;1546432;75;775;-66
2021/09/29 03:49:30;;;;;;;;;;;23.10;52.10;;;;;;1561669;75;787;-66
2021/09/29 03:51:32;;;;;;;;;;;23.20;52.00;;;;;;1559581;75;775;-66
2021/09/29 03:53:34;;;;;;;;;;;23.10;52.00;;;;;;1543498;77;1151;-66
2021/09/29 03:55:35;;;;;;;;;;;23.10;52.00;;;;;;1543738;77;770;-67
2021/09/29 03:57:40;;;;;;;;;;;23.10;51.90;;;;;;1543753;75;687;-66
2021/09/29 03:59:42;;;;;;;;;;;23.10;51.90;;;;;;1547884;75;807;-66
2021/09/29 04:01:46;;;;;;;;;;;23.10;51.90;;;;;;1544103;75;887;-66
2021/09/29 04:03:47;;;;;;;;;;;23.10;51.90;;;;;;1543555;75;1159;-66
2021/09/29 04:05:49;;;;;;;;;;;23.10;51.80;;;;;;1551013;75;1947;-66
2021/09/29 04:07:51;;;;;;;;;;;23.10;51.80;;;;;;1553517;75;792;-66
2021/09/29 04:09:53;;;;;;;;;;;23.10;51.80;;;;;;1545084;75;829;-66
2021/09/29 04:11:55;;;;;;;;;;;23.10;51.80;;;;;;1543824;77;760;-66
2021/09/29 04:13:57;;;;;;;;;;;23.10;51.70;;;;;;1543777;75;1193;-66
2021/09/29 04:15:59;;;;;;;;;;;23.10;51.70;;;;;;1543643;75;794;-66
2021/09/29 04:18:02;;;;;;;;;;;23.10;51.70;;;;;;1554383;75;743;-66
2021/09/29 04:20:04;;;;;;;;;;;23.00;51.60;;;;;;1565146;75;817;-66
2021/09/29 04:22:10;;;;;;;;;;;23.00;51.60;;;;;;1533380;75;908;-66
2021/09/29 04:24:10;;;;;;;;;;;23.00;51.60;;;;;;1542175;77;1725;-67
2021/09/29 04:26:12;;;;;;;;;;;23.00;51.60;;;;;;1533202;75;1947;-67
2021/09/29 04:28:14;;;;;;;;;;;23.00;51.60;;;;;;1526350;77;759;-67
2021/09/29 04:30:16;;;;;;;;;;;23.00;51.60;;;;;;1544178;75;722;-66
2021/09/29 04:32:18;;;;;;;;;;;23.10;51.80;;;;;;1550453;75;788;-66
2021/09/29 04:34:19;;;;;;;;;;;23.00;51.70;;;;;;1543961;76;1157;-65
2021/09/29 04:36:21;;;;;;;;;;;23.00;51.80;;;;;;1543920;75;748;-66
2021/09/29 04:38:23;;;;;;;;;;;23.00;51.70;;;;;;1542439;76;731;-66
2021/09/29 04:40:25;;;;;;;;;;;23.00;51.80;;;;;;1544616;75;744;-66
2021/09/29 04:42:27;;;;;;;;;;;23.10;51.80;;;;;;1543757;75;744;-67
2021/09/29 04:44:29;;;;;;;;;;;23.10;51.80;;;;;;1543480;75;1142;-66
2021/09/29 04:46:31;;;;;;;;;;;23.00;51.70;;;;;;1547704;75;1945;-67
2021/09/29 04:48:33;;;;;;;;;;;23.00;51.80;;;;;;1539557;76;767;-67
2021/09/29 04:50:34;;;;;;;;;;;23.00;51.70;;;;;;1543605;75;723;-65
2021/09/29 04:52:36;;;;;;;;;;;23.00;51.70;;;;;;1552494;75;765;-66
2021/09/29 04:54:41;;;;;;;;;;;23.10;51.80;;;;;;1543144;75;1146;-67
2021/09/29 04:56:43;;;;;;;;;;;23.00;51.70;;;;;;1547192;75;1701;-66
2021/09/29 04:58:45;;;;;;;;;;;23.00;51.70;;;;;;1547403;75;802;-64
2021/09/29 05:00:47;;;;;;;;;;;23.10;51.80;;;;;;1547105;75;803;-66
2021/09/29 05:02:49;;;;;;;;;;;23.10;51.80;;;;;;1539467;75;768;-68
2021/09/29 05:04:51;;;;;;;;;;;23.10;51.80;;;;;;1543538;76;1317;-66
2021/09/29 05:06:53;;;;;;;;;;;23.00;51.70;;;;;;1541438;76;1943;-65
2021/09/29 05:08:55;;;;;;;;;;;23.00;51.70;;;;;;1543904;75;727;-65
2021/09/29 05:11:00;;;;;;;;;;;23.10;51.80;;;;;;1543684;75;724;-69
2021/09/29 05:13:03;;;;;;;;;;;23.10;52.00;;;;;;1549500;75;706;-68
2021/09/29 05:15:06;;;;;;;;;;;23.20;51.90;;;;;;1543777;75;1177;-67
2021/09/29 05:17:08;;;;;;;;;;;23.20;51.80;;;;;;1546049;75;891;-67
2021/09/29 05:19:09;;;;;;;;;;;23.10;51.70;;;;;;1544281;75;727;-67
2021/09/29 05:21:11;;;;;;;;;;;23.10;51.60;;;;;;1543574;75;749;-67
2021/09/29 05:23:13;;;;;;;;;;;23.10;51.60;;;;;;1543474;75;776;-67
2021/09/29 05:25:15;;;;;;;;;;;23.10;51.50;;;;;;1543653;76;1159;-67
2021/09/29 05:27:17;;;;;;;;;;;23.10;51.40;;;;;;1543897;76;1916;-68
2021/09/29 05:29:19;;;;;;;;;;;23.10;51.60;;;;;;1559538;75;788;-66
2021/09/29 05:31:21;;;;;;;;;;;23.10;51.80;;;;;;1543780;75;811;-64
2021/09/29 05:33:23;;;;;;;;;;;23.10;51.70;;;;;;1543471;75;1186;-64
2021/09/29 05:35:25;;;;;;;;;;;23.10;51.60;;;;;;1543578;75;719;-65
2021/09/29 05:37:26;;;;;;;;;;;23.10;51.50;;;;;;1562667;75;782;-65
2021/09/29 05:39:28;;;;;;;;;;;23.10;51.50;;;;;;1543139;75;786;-65
2021/09/29 05:41:30;;;;;;;;;;;23.00;51.30;;;;;;1535992;75;693;-66
2021/09/29 05:43:32;;;;;;;;;;;23.10;51.40;;;;;;1541593;75;1138;-64
2021/09/29 05:45:34;;;;;;;;;;;23.10;51.40;;;;;;1546717;75;724;-64
2021/09/29 05:47:36;;;;;;;;;;;23.10;51.30;;;;;;1543855;75;1943;-64
2021/09/29 05:49:38;;;;;;;;;;;23.00;51.20;;;;;;1543754;75;669;-64
2021/09/29 05:51:44;;;;;;;;;;;23.10;51.20;;;;;;1543464;75;783;-64
2021/09/29 05:53:43;;;;;;;;;;;23.00;51.00;;;;;;1550194;75;1682;-65
2021/09/29 05:55:45;;;;;;;;;;;23.00;51.00;;;;;;1543863;75;874;-64
2021/09/29 05:57:47;;;;;;;;;;;23.00;51.00;;;;;;1543538;75;861;-65
2021/09/29 05:59:50;;;;;;;;;;;23.00;50.90;;;;;;1552786;75;814;-64
2021/09/29 06:01:52;;;;;;;;;;;23.00;50.90;;;;;;1549229;75;775;-63
2021/09/29 06:03:54;;;;;;;;;;;23.00;50.80;;;;;;1549894;75;1219;-64
2021/09/29 06:05:56;;;;;;;;;;;23.00;50.70;;;;;;1543961;75;1937;-64
2021/09/29 06:07:58;;;;;;;;;;;23.00;50.70;;;;;;1554373;75;804;-65
2021/09/29 06:10:00;;;;;;;;;;;23.00;50.60;;;;;;1549029;75;676;-64
2021/09/29 06:12:02;;;;;;;;;;;23.00;50.70;;;;;;1539294;75;745;-64
2021/09/29 06:14:06;;;;;;;;;;;23.00;50.60;;;;;;1543459;75;1150;-65
2021/09/29 06:16:09;;;;;;;;;;;22.90;50.60;;;;;;1558848;75;706;-64
2021/09/29 06:18:14;;;;;;;;;;;22.90;50.60;;;;;;1543818;75;714;-65
2021/09/29 06:20:16;;;;;;;;;;;22.90;50.60;;;;;;1537998;75;779;-63
2021/09/29 06:22:18;;;;;;;;;;;22.90;50.60;;;;;;1552696;75;805;-65
2021/09/29 06:24:20;;;;;;;;;;;23.00;50.60;;;;;;1545185;75;1087;-64
2021/09/29 06:26:22;;;;;;;;;;;22.90;50.60;;;;;;1562876;75;1936;-64
2021/09/29 06:28:24;;;;;;;;;;;22.90;50.50;;;;;;1543810;75;772;-64
2021/09/29 06:30:26;;;;;;;;;;;22.90;50.60;;;;;;1543641;75;781;-64
2021/09/29 06:32:27;;;;;;;;;;;22.90;50.40;;;;;;1546871;75;879;-65
2021/09/29 06:34:30;;;;;;;;;;;22.90;50.30;;;;;;1543140;75;1139;-65
2021/09/29 06:36:32;;;;;;;;;;;22.90;50.30;;;;;;1540456;75;701;-64
2021/09/29 06:38:34;;;;;;;;;;;22.90;50.20;;;;;;1543814;75;805;-65
2021/09/29 06:40:35;;;;;;;;;;;22.90;50.20;;;;;;1543633;75;856;-63
2021/09/29 06:42:37;;;;;;;;;;;22.90;50.20;;;;;;1543440;75;802;-64
2021/09/29 06:44:39;;;;;;;;;;;22.90;50.20;;;;;;1552297;75;1148;-64
2021/09/29 06:46:41;;;;;;;;;;;22.90;50.10;;;;;;1543745;75;1947;-64
2021/09/29 06:48:43;;;;;;;;;;;22.80;50.00;;;;;;1546639;75;799;-64
2021/09/29 06:50:45;;;;;;;;;;;22.90;50.10;;;;;;1543705;75;789;-65
2021/09/29 06:52:47;;;;;;;;;;;22.80;50.00;;;;;;1542780;76;882;-65
2021/09/29 06:54:49;;;;;;;;;;;22.80;50.00;;;;;;1546094;73;2052;-68
2021/09/29 06:56:51;;;;;;;;;;;22.80;50.00;;;;;;1526383;76;719;-67
2021/09/29 06:58:53;;;;;;;;;;;22.80;49.90;;;;;;1528000;76;754;-68
2021/09/29 07:00:54;;;;;;;;;;;22.90;50.00;;;;;;1525332;76;694;-67
2021/09/29 07:02:56;;;;;;;;;;;22.80;49.90;;;;;;1532736;76;769;-67
2021/09/29 07:04:58;;;;;;;;;;;22.80;49.80;;;;;;1546568;76;1178;-67
2021/09/29 07:07:00;;;;;;;;;;;22.80;49.70;;;;;;1533017;76;1903;-67
2021/09/29 07:09:02;;;;;;;;;;;22.80;49.70;;;;;;1536615;76;711;-67
2021/09/29 07:11:04;;;;;;;;;;;22.80;49.70;;;;;;1534561;76;695;-68
2021/09/29 07:13:07;;;;;;;;;;;22.80;49.70;;;;;;1530099;76;798;-68
2021/09/29 07:15:10;;;;;;;;;;;22.80;49.60;;;;;;1522976;76;1131;-67
2021/09/29 07:17:12;;;;;;;;;;;22.80;49.60;;;;;;1523642;76;696;-66
2021/09/29 07:19:14;;;;;;;;;;;22.70;49.60;;;;;;1527278;76;835;-69
2021/09/29 07:21:16;;;;;;;;;;;22.80;49.60;;;;;;1534338;76;726;-67
2021/09/29 07:23:17;;;;;;;;;;;22.80;49.50;;;;;;1540341;74;787;-66
2021/09/29 07:25:19;;;;;;;;;;;22.80;49.50;;;;;;1516548;76;1084;-67
2021/09/29 07:27:21;;;;;;;;;;;22.70;49.50;;;;;;1524141;76;1926;-67
2021/09/29 07:29:23;;;;;;;;;;;22.80;49.50;;;;;;1535313;76;703;-67
2021/09/29 07:31:27;;;;;;;;;;;22.80;49.40;;;;;;1532812;76;724;-67
2021/09/29 07:33:33;;;;;;;;;;;22.80;49.20;;;;;;1525984;76;760;-67
2021/09/29 07:35:32;;;;;;;;;;;22.70;49.20;;;;;;1524450;76;1570;-66
2021/09/29 07:37:34;;;;;;;;;;;22.70;49.20;;;;;;1533219;76;708;-67
2021/09/29 07:39:36;;;;;;;;;;;22.80;49.20;;;;;;1530280;76;828;-66
2021/09/29 07:41:38;;;;;;;;;;;22.70;49.10;;;;;;1535789;76;779;-66
2021/09/29 07:43:40;;;;;;;;;;;22.70;48.90;;;;;;1529280;76;1094;-68
2021/09/29 07:45:42;;;;;;;;;;;22.80;48.70;;;;;;1526379;76;678;-68
2021/09/29 07:47:44;;;;;;;;;;;22.70;48.30;;;;;;1524441;76;1936;-68
2021/09/29 07:49:46;;;;;;;;;;;22.70;48.00;;;;;;1533134;76;778;-67
2021/09/29 07:51:48;;;;;;;;;;;22.80;48.00;;;;;;1527482;76;718;-65
2021/09/29 07:53:50;;;;;;;;;;;22.80;47.50;;;;;;1528353;76;1117;-67
2021/09/29 07:55:53;;;;;;;;;;;22.80;47.50;;;;;;1529219;76;817;-67
2021/09/29 07:57:55;;;;;;;;;;;22.80;47.10;;;;;;1521190;76;724;-68
2021/09/29 07:59:57;;;;;;;;;;;22.80;47.10;;;;;;1528614;76;786;-69
2021/09/29 08:01:58;;;;;;;;;;;22.80;45.50;;;;;;1513589;76;812;-67
2021/09/29 08:04:00;;;;;;;;;;;22.80;45.00;;;;;;1522032;76;1190;-67
2021/09/29 08:06:04;;;;;;;;;;;22.80;46.10;;;;;;1516704;76;873;-67
2021/09/29 08:08:06;;;;;;;;;;;22.80;46.30;;;;;;1515358;76;1917;-68
2021/09/29 08:10:08;;;;;;;;;;;22.80;46.30;;;;;;1516751;76;1003;-68
2021/09/29 08:12:10;;;;;;;;;;;22.70;45.40;;;;;;1520889;76;775;-67
2021/09/29 08:14:12;;;;;;;;;;;22.70;45.50;;;;;;1520741;75;1137;-67
2021/09/29 08:16:13;;;;;;;;;;;22.70;45.70;;;;;;1524283;76;818;-68
2021/09/29 08:18:15;;;;;;;;;;;22.80;45.90;;;;;;1510613;76;768;-66
2021/09/29 08:20:19;;;;;;;;;;;22.90;45.90;;;;;;1518189;76;729;-67
2021/09/29 08:22:21;;;;;;;;;;;22.80;46.00;;;;;;1520688;76;760;-68
2021/09/29 08:24:34;;;;;;;;;;;22.90;46.00;;;;;;1520655;76;1142;-68
2021/09/29 08:26:37;;;;;;;;;;;22.90;45.90;;;;;;1513463;76;1667;-68
2021/09/29 08:28:42;;;;;;;;;;;22.90;45.90;;;;;;1511536;76;1923;-69
2021/09/29 08:30:59;;;;;;;;;;;23.00;45.60;;;;;;1519882;76;1617;-67
2021/09/29 08:33:05;;;;;;;;;;;23.00;45.70;;;;;;1517170;76;1624;-68
2021/09/29 08:35:26;;;;;;;;;;;23.00;45.00;;;;;;1516029;75;1606;-68
2021/09/29 08:39:33;;;;;;;;;;;22.90;45.50;;;;;;1515774;76;860;-68
2021/09/29 08:43:48;;;;;;;;;;;22.90;43.90;;;;;;1519635;76;1882;-69
2021/09/29 08:45:58;;;;;;;;;;;22.90;44.60;;;;;;1512048;76;1531;-66
2021/09/29 08:50:22;;;;;;;;;;;22.90;44.60;;;;;;1475595;76;1217;-67
2021/09/29 08:52:34;;;;;;;;;;;22.90;44.10;;;;;;1515334;76;1025;-69
2021/09/29 09:15:39;;;;;;;;;;;22.80;43.70;;;;;;1509035;76;1709;-68
2021/09/29 09:17:27;;;;;;;;;;;22.80;43.60;;;;;;1514234;76;1209;-68
2021/09/29 09:19:29;;;;;;;;;;;22.80;43.80;;;;;;1519232;76;1730;-68
2021/09/29 09:21:32;;;;;;;;;;;22.80;43.60;;;;;;1522631;76;690;-68
2021/09/29 09:23:39;;;;;;;;;;;22.70;43.60;;;;;;1504474;76;907;-68
2021/09/29 09:25:42;;;;;;;;;;;22.80;43.80;;;;;;1556913;75;706;-68
2021/09/29 09:27:45;;;;;;;;;;;22.90;43.70;;;;;;1526564;76;1914;-68
2021/09/29 09:29:51;;;;;;;;;;;22.90;43.80;;;;;;1507681;76;772;-68
2021/09/29 09:31:54;;;;;;;;;;;22.80;43.60;;;;;;1515953;76;1115;-68
2021/09/29 09:33:57;;;;;;;;;;;22.80;43.40;;;;;;1524895;76;1131;-67
2021/09/29 09:35:59;;;;;;;;;;;22.90;43.60;;;;;;1511671;76;797;-68
2021/09/29 09:38:01;;;;;;;;;;;22.80;43.40;;;;;;1510731;76;815;-68
2021/09/29 09:40:07;;;;;;;;;;;22.80;43.40;;;;;;1497110;78;1249;-68
2021/09/29 09:42:09;;;;;;;;;;;22.70;43.30;;;;;;1522761;76;1031;-69
2021/09/29 09:44:11;;;;;;;;;;;22.80;43.10;;;;;;1523143;76;1118;-68
2021/09/29 09:46:16;;;;;;;;;;;22.70;43.00;;;;;;1532838;76;802;-68
2021/09/29 09:48:21;;;;;;;;;;;22.80;43.10;;;;;;1517269;76;1890;-68
2021/09/29 09:50:26;;;;;;;;;;;22.70;43.10;;;;;;1524440;76;1170;-68
2021/09/29 09:52:29;;;;;;;;;;;22.70;43.30;;;;;;1505677;76;729;-68
2021/09/29 09:54:34;;;;;;;;;;;22.70;43.40;;;;;;1507589;76;1151;-70
2021/09/29 09:56:37;;;;;;;;;;;22.70;43.40;;;;;;1505528;76;815;-68
2021/09/29 09:58:48;;;;;;;;;;;22.70;43.40;;;;;;1508487;76;665;-70
2021/09/29 10:00:52;;;;;;;;;;;22.70;43.40;;;;;;1507243;76;703;-68
2021/09/29 10:02:56;;;;;;;;;;;22.60;43.50;;;;;;1512596;76;1104;-67
2021/09/29 10:04:58;;;;;;;;;;;22.70;43.70;;;;;;1532360;76;1150;-70
2021/09/29 10:07:00;;;;;;;;;;;22.70;43.80;;;;;;1512373;76;729;-68
2021/09/29 10:09:09;;;;;;;;;;;22.70;43.90;;;;;;1516408;76;1918;-68
2021/09/29 10:11:20;;;;;;;;;;;22.80;43.80;;;;;;1513822;76;1627;-69
2021/09/29 10:27:07;;;;;;;;;;;22.80;42.90;;;;;;1510730;76;867;-68
2021/09/29 10:29:10;;;;;;;;;;;22.80;43.00;;;;;;1512925;76;1938;-68
2021/09/29 10:31:36;;;;;;;;;;;22.80;42.60;;;;;;1523015;76;762;-71
2021/09/29 10:33:29;;;;;;;;;;;22.80;43.10;;;;;;1520065;76;1653;-68
2021/09/29 10:35:45;;;;;;;;;;;22.80;43.20;;;;;;1538514;75;1066;-68
2021/09/29 10:40:16;;;;;;;;;;;22.80;42.80;;;;;;1522994;76;1610;-67
2021/09/29 10:40:21;;;;;;;;;;;22.80;43.10;;;;;;1518206;76;995;-67
2021/09/29 10:42:24;;;;;;;;;;;22.90;43.40;;;;;;1520156;76;1608;-67
2021/09/29 10:44:32;;;;;;;;;;;22.80;43.40;;;;;;1517123;76;1157;-68
2021/09/29 10:48:59;;;;;;;;;;;22.90;43.80;;;;;;1472894;76;1952;-67
2021/09/29 11:05:26;;;;;;;;;;;22.90;43.50;;;;;;1525638;76;2015;-69
2021/09/29 11:07:26;;;;;;;;;;;22.90;43.60;;;;;;1520381;76;1363;-67
2021/09/29 11:09:46;;;;;;;;;;;22.80;43.60;;;;;;1515664;76;1928;-67
2021/09/29 11:30:25;;;;;;;;;;;22.70;44.10;;;;;;1511248;76;858;-68
2021/09/29 11:32:35;;;;;;;;;;;22.70;44.00;;;;;;1522213;76;691;-69
2021/09/29 11:34:32;;;;;;;;;;;22.70;44.20;;;;;;1541523;75;1647;-69
2021/09/29 12:08:49;;;;;;;;;;;22.80;44.20;;;;;;1560482;75;1894;-66
2021/09/29 12:10:58;;;;;;;;;;;22.80;44.40;;;;;;1490246;77;1527;-69
2021/09/29 12:12:54;;;;;;;;;;;22.80;44.30;;;;;;1534123;76;1562;-68
2021/09/29 12:14:57;;;;;;;;;;;22.80;44.20;;;;;;1511128;76;1100;-69
2021/09/29 12:16:59;;;;;;;;;;;22.80;44.30;;;;;;1523776;76;731;-68
2021/09/29 12:19:08;;;;;;;;;;;22.70;44.30;;;;;;1516164;76;770;-70
2021/09/29 12:21:11;;;;;;;;;;;22.70;44.30;;;;;;1532237;76;683;-68
2021/09/29 12:23:12;;;;;;;;;;;22.70;44.30;;;;;;1525511;76;742;-68
2021/09/29 12:25:17;;;;;;;;;;;22.80;44.30;;;;;;1506272;76;1113;-68
2021/09/29 12:27:32;;;;;;;;;;;22.70;44.30;;;;;;1517664;76;1757;-70
2021/09/29 12:29:37;;;;;;;;;;;22.80;44.20;;;;;;1519064;76;1913;-72
2021/09/29 12:31:59;;;;;;;;;;;22.70;44.20;;;;;;1525154;76;632;-70
2021/09/29 12:36:14;;;;;;;;;;;22.70;44.20;;;;;;1528205;76;860;-72
2021/09/29 12:38:14;;;;;;;;;;;22.70;44.10;;;;;;1562395;75;1689;-71
2021/09/29 12:40:17;;;;;;;;;;;22.60;44.20;;;;;;1542111;75;640;-70
2021/09/29 12:42:20;;;;;;;;;;;22.70;44.20;;;;;;1569061;75;721;-71
2021/09/29 12:44:22;;;;;;;;;;;22.70;44.20;;;;;;1562338;74;1156;-74
2021/09/29 12:46:24;;;;;;;;;;;22.70;44.20;;;;;;1565743;75;704;-71
2021/09/29 12:48:30;;;;;;;;;;;22.70;44.20;;;;;;1530008;76;1983;-68
2021/09/29 12:53:33;;;;;;;;;;;22.60;44.10;;;;;;1518191;77;873;-70
2021/09/29 12:54:55;;;;;;;;;;;22.60;44.00;;;;;;1507518;73;230845;-66
2021/09/29 12:56:57;;;;;;;;;;;22.60;44.00;;;;;;1514096;77;1644;-67
2021/09/29 12:58:58;;;;;;;;;;;22.60;44.00;;;;;;1519558;77;782;-66
2021/09/29 13:01:00;;;;;;;;;;;22.60;43.90;;;;;;1516446;77;794;-65
2021/09/29 13:03:05;;;;;;;;;;;22.60;44.10;;;;;;1520943;77;671;-65
2021/09/29 13:05:06;;;;;;;;;;;22.60;44.10;;;;;;1518284;77;1678;-66
2021/09/29 13:07:08;;;;;;;;;;;22.60;43.80;;;;;;1522720;77;731;-68
2021/09/29 13:09:10;;;;;;;;;;;22.60;43.90;;;;;;1515176;77;1934;-65
2021/09/29 13:11:12;;;;;;;;;;;22.60;43.90;;;;;;1507958;77;676;-66
2021/09/29 13:13:15;;;;;;;;;;;22.60;44.10;;;;;;1507469;77;693;-63
2021/09/29 13:15:17;;;;;;;;;;;22.60;44.20;;;;;;1520620;76;1129;-66
2021/09/29 13:17:19;;;;;;;;;;;22.50;44.30;;;;;;1517515;77;772;-66
2021/09/29 13:19:27;;;;;;;;;;;22.60;44.20;;;;;;1505957;77;698;-66
2021/09/29 13:21:33;;;;;;;;;;;22.60;44.20;;;;;;1509978;77;1644;-66
2021/09/29 13:26:00;;;;;;;;;;;22.60;44.30;;;;;;1510010;76;1196;-66
2021/09/29 13:36:51;;;;;;;;;;;22.60;44.10;;;;;;1526015;77;1615;-66
2021/09/29 13:38:53;;;;;;;;;;;22.50;44.10;;;;;;1522401;77;748;-66
2021/09/29 13:40:56;;;;;;;;;;;22.50;44.20;;;;;;1507012;77;763;-66
2021/09/29 13:42:58;;;;;;;;;;;22.50;44.30;;;;;;1504024;77;706;-66
2021/09/29 13:45:00;;;;;;;;;;;22.50;44.10;;;;;;1496261;77;1122;-66
2021/09/29 13:47:02;;;;;;;;;;;22.50;44.10;;;;;;1516207;77;745;-66
2021/09/29 13:49:05;;;;;;;;;;;22.60;44.30;;;;;;1499553;77;1939;-65
2021/09/29 13:51:07;;;;;;;;;;;22.50;44.30;;;;;;1509722;77;824;-66
2021/09/29 13:53:11;;;;;;;;;;;22.60;44.30;;;;;;1517303;77;899;-63
2021/09/29 13:55:17;;;;;;;;;;;22.50;44.30;;;;;;1516611;76;1126;-66
2021/09/29 13:57:24;;;;;;;;;;;22.60;44.30;;;;;;1506052;77;1741;-65
2021/09/29 14:01:58;;;;;;;;;;;22.50;44.40;;;;;;1512704;77;858;-66
2021/09/29 14:14:04;;;;;;;;;;;22.50;44.40;;;;;;1513751;77;1419;-66
2021/09/29 14:29:14;;;;;;;;;;;22.60;45.90;;;;;;1505559;77;1915;-66
2021/09/29 14:31:18;;;;;;;;;;;22.60;46.20;;;;;;1494937;77;1719;-67
2021/09/29 14:33:25;;;;;;;;;;;22.70;46.70;;;;;;1500014;77;1459;-64
2021/09/29 14:35:25;;;;;;;;;;;22.70;46.80;;;;;;1495949;77;1682;-65
2021/09/29 14:37:27;;;;;;;;;;;22.70;47.00;;;;;;1508239;77;556;-65
2021/09/29 14:39:29;;;;;;;;;;;22.70;47.30;;;;;;1505145;77;728;-66
2021/09/29 14:41:31;;;;;;;;;;;22.70;47.30;;;;;;1505836;77;722;-66
2021/09/29 14:43:33;;;;;;;;;;;22.70;47.40;;;;;;1490484;77;817;-66